KCRP/CRP METAR and TAF weather

Enter ICAO airport designator
Station Type Date Time Source
KCRP METAR 2022/06/27 08:51 UTC NOAA

KCRP 270851Z 18003KT 10SM FEW015 FEW250 22/22 A3005 RMK AO2 SLP174 T02220217 58008


Station Type Date Time Source
KCRP Decoded METAR 2022/06/27 08:51 UTC NOAA

CORPUS CHRISTI INTERNATIONAL , TX, United States (KCRP) 27-46N 97-31W 16M
Jun 27, 2022 - 04:51 AM EDT / 2022.06.27 0851 UTC
Wind: from the S (180 degrees) at 3 MPH (3 KT):0
Visibility: 10 mile(s):0
Sky conditions: mostly clear
Temperature: 72.0 F (22.2 C)
Dew Point: 71.1 F (21.7 C)
Relative Humidity: 96%
Pressure (altimeter): 30.05 in. Hg (1017 hPa)
Pressure tendency: 0.02 inches (0.8 hPa) lower than three hours ago
ob: KCRP 270851Z 18003KT 10SM FEW015 FEW250 22/22 A3005 RMK AO2 SLP174 T02220217 58008
cycle: 9

Station Type Date Time Source
KCRP TAF 2022/06/27 06:39 UTC NOAA

TAF KCRP 270536Z 2706/2806 14004KT P6SM FEW250
FM271000 21003KT P6SM FEW250
FM272000 07008KT P6SM VCSH BKN040
TEMPO 2722/2802 VRB15KT 4SM TSRA BKN035CB
FM280300 05007KT P6SM SCT150 BKN250

Example: see airport list